Terminal Aerodrome Forecast
Issued by NWS

Home | Current Version | Previous Version | Text Only | Print | Product List | Glossary On
Versions: 1 2 3 4 5 6 7 8 9 10 11 12 13 14
712
FTUS42 KTAE 232327
TAFABY
TAF
KABY 232327Z 2400/2424 10009KT P6SM OVC040
     FM240900 06006KT 4SM BR OVC050
     FM241800 13010KT P6SM SCT050 BKN250=

USA.gov is the U.S. government's official web portal to all federal, state and local government web resources and services.